sensor_id;sensor_type;location;lat;lon;timestamp;pressure;altitude;pressure_sealevel;temperature;humidity
77279;BME280;66332;50.436;15.378;2023-03-17T05:02:22;98672.47;;;-0.14;67.68
77279;BME280;66332;50.436;15.378;2023-03-17T05:07:03;98683.44;;;0.03;66.80
77279;BME280;66332;50.436;15.378;2023-03-17T05:11:44;98670.94;;;-0.04;67.05
77279;BME280;66332;50.436;15.378;2023-03-17T05:16:25;98685.63;;;-0.04;66.77
77279;BME280;66332;50.436;15.378;2023-03-17T05:21:06;98666.09;;;-0.08;66.78
77279;BME280;66332;50.436;15.378;2023-03-17T05:25:47;98668.78;;;0.03;67.41
77279;BME280;66332;50.436;15.378;2023-03-17T05:30:28;98647.91;;;0.19;65.16
77279;BME280;66332;50.436;15.378;2023-03-17T05:35:09;98650.97;;;0.24;65.25
77279;BME280;66332;50.436;15.378;2023-03-17T05:39:50;98658.94;;;0.47;64.56
77279;BME280;66332;50.436;15.378;2023-03-17T05:44:33;98663.47;;;0.68;62.79
77279;BME280;66332;50.436;15.378;2023-03-17T05:49:14;98658.81;;;0.74;62.61
77279;BME280;66332;50.436;15.378;2023-03-17T05:53:55;98669.47;;;1.06;61.96
77279;BME280;66332;50.436;15.378;2023-03-17T05:58:36;98661.94;;;1.27;62.08
77279;BME280;66332;50.436;15.378;2023-03-17T06:03:17;98668.84;;;1.39;61.70
77279;BME280;66332;50.436;15.378;2023-03-17T06:07:58;98655.72;;;1.53;60.25
77279;BME280;66332;50.436;15.378;2023-03-17T06:12:40;98660.81;;;1.66;61.02
77279;BME280;66332;50.436;15.378;2023-03-17T06:17:21;98663.09;;;1.82;59.01
77279;BME280;66332;50.436;15.378;2023-03-17T06:22:02;98662.28;;;1.81;59.81
77279;BME280;66332;50.436;15.378;2023-03-17T06:26:43;98660.06;;;1.88;57.38
77279;BME280;66332;50.436;15.378;2023-03-17T06:31:24;98636.84;;;1.87;58.66
77279;BME280;66332;50.436;15.378;2023-03-17T06:36:06;98617.88;;;1.86;57.40
77279;BME280;66332;50.436;15.378;2023-03-17T06:40:47;98646.13;;;2.13;57.97
77279;BME280;66332;50.436;15.378;2023-03-17T06:45:29;98641.25;;;2.09;58.50
77279;BME280;66332;50.436;15.378;2023-03-17T06:50:12;98646.00;;;2.26;56.88
77279;BME280;66332;50.436;15.378;2023-03-17T06:54:53;98671.13;;;2.37;56.07
77279;BME280;66332;50.436;15.378;2023-03-17T06:59:34;98673.25;;;2.54;55.23
77279;BME280;66332;50.436;15.378;2023-03-17T07:04:15;98672.22;;;2.68;56.06
77279;BME280;66332;50.436;15.378;2023-03-17T07:08:56;98686.38;;;2.75;54.90
77279;BME280;66332;50.436;15.378;2023-03-17T07:13:38;98671.38;;;2.79;56.30
77279;BME280;66332;50.436;15.378;2023-03-17T07:18:20;98649.53;;;2.81;55.66
77279;BME280;66332;50.436;15.378;2023-03-17T07:23:01;98671.72;;;2.96;54.68
77279;BME280;66332;50.436;15.378;2023-03-17T07:27:42;98682.78;;;3.10;53.54
77279;BME280;66332;50.436;15.378;2023-03-17T07:32:23;98676.75;;;3.20;53.73
77279;BME280;66332;50.436;15.378;2023-03-17T07:37:04;98670.91;;;3.28;54.11
77279;BME280;66332;50.436;15.378;2023-03-17T07:41:46;98682.41;;;3.58;53.38
77279;BME280;66332;50.436;15.378;2023-03-17T07:46:32;98675.91;;;3.63;52.95
77279;BME280;66332;50.436;15.378;2023-03-17T07:51:15;98652.56;;;3.73;51.63
77279;BME280;66332;50.436;15.378;2023-03-17T07:55:56;98629.16;;;4.15;52.05
77279;BME280;66332;50.436;15.378;2023-03-17T08:00:37;98645.31;;;4.40;51.96
77279;BME280;66332;50.436;15.378;2023-03-17T08:05:19;98659.09;;;4.61;51.48
77279;BME280;66332;50.436;15.378;2023-03-17T08:10:00;98658.69;;;4.35;49.85
77279;BME280;66332;50.436;15.378;2023-03-17T08:14:42;98680.13;;;4.69;50.99
77279;BME280;66332;50.436;15.378;2023-03-17T08:19:23;98665.72;;;5.15;50.85
77279;BME280;66332;50.436;15.378;2023-03-17T08:24:04;98637.59;;;5.09;49.44
77279;BME280;66332;50.436;15.378;2023-03-17T08:28:45;98623.06;;;5.26;49.60
77279;BME280;66332;50.436;15.378;2023-03-17T08:33:26;98642.81;;;5.38;48.37
77279;BME280;66332;50.436;15.378;2023-03-17T08:38:07;98646.13;;;5.60;47.65
77279;BME280;66332;50.436;15.378;2023-03-17T08:42:48;98638.56;;;6.05;48.21
77279;BME280;66332;50.436;15.378;2023-03-17T08:47:30;98636.72;;;6.35;47.21
77279;BME280;66332;50.436;15.378;2023-03-17T08:52:11;98625.28;;;6.46;48.26
77279;BME280;66332;50.436;15.378;2023-03-17T08:56:52;98621.28;;;6.41;46.89
77279;BME280;66332;50.436;15.378;2023-03-17T09:01:33;98624.94;;;6.86;45.69
77279;BME280;66332;50.436;15.378;2023-03-17T09:06:14;98641.88;;;7.09;46.16
77279;BME280;66332;50.436;15.378;2023-03-17T09:10:55;98613.28;;;7.44;44.30
77279;BME280;66332;50.436;15.378;2023-03-17T09:15:36;98620.75;;;7.39;45.08
77279;BME280;66332;50.436;15.378;2023-03-17T09:20:18;98637.03;;;7.68;43.89
77279;BME280;66332;50.436;15.378;2023-03-17T09:25:00;98657.16;;;7.68;43.04
77279;BME280;66332;50.436;15.378;2023-03-17T09:29:41;98648.75;;;8.00;41.86
77279;BME280;66332;50.436;15.378;2023-03-17T09:34:22;98636.09;;;8.13;42.11
77279;BME280;66332;50.436;15.378;2023-03-17T09:39:05;98625.84;;;8.02;42.35
77279;BME280;66332;50.436;15.378;2023-03-17T09:53:19;98620.97;;;8.59;37.74
77279;BME280;66332;50.436;15.378;2023-03-17T09:58:02;98589.28;;;8.44;39.91
77279;BME280;66332;50.436;15.378;2023-03-17T10:02:44;98593.97;;;8.67;40.72
77279;BME280;66332;50.436;15.378;2023-03-17T10:07:33;98591.25;;;8.42;39.76
77279;BME280;66332;50.436;15.378;2023-03-17T10:17:39;98588.13;;;8.81;39.92
77279;BME280;66332;50.436;15.378;2023-03-17T10:22:29;98551.19;;;8.66;39.63
77279;BME280;66332;50.436;15.378;2023-03-17T10:27:13;98576.28;;;9.60;40.09
77279;BME280;66332;50.436;15.378;2023-03-17T10:31:55;98570.38;;;9.42;39.11
77279;BME280;66332;50.436;15.378;2023-03-17T10:36:40;98571.53;;;9.56;38.17
77279;BME280;66332;50.436;15.378;2023-03-17T10:41:22;98563.31;;;9.75;37.51
77279;BME280;66332;50.436;15.378;2023-03-17T10:46:05;98560.69;;;9.75;37.78
77279;BME280;66332;50.436;15.378;2023-03-17T10:50:47;98555.56;;;9.98;37.70
77279;BME280;66332;50.436;15.378;2023-03-17T10:55:31;98533.78;;;9.65;37.80
77279;BME280;66332;50.436;15.378;2023-03-17T11:00:16;98535.88;;;9.78;37.14
77279;BME280;66332;50.436;15.378;2023-03-17T11:05:03;98505.91;;;10.20;39.08
77279;BME280;66332;50.436;15.378;2023-03-17T11:09:49;98513.06;;;10.42;37.65
77279;BME280;66332;50.436;15.378;2023-03-17T11:14:31;98496.22;;;10.20;37.67
77279;BME280;66332;50.436;15.378;2023-03-17T11:19:14;98482.88;;;10.38;35.09
77279;BME280;66332;50.436;15.378;2023-03-17T11:24:04;98478.03;;;10.50;36.46
77279;BME280;66332;50.436;15.378;2023-03-17T11:28:56;98476.81;;;10.61;34.63
77279;BME280;66332;50.436;15.378;2023-03-17T11:53:26;98487.84;;;11.48;32.80
77279;BME280;66332;50.436;15.378;2023-03-17T11:58:31;98470.09;;;11.04;32.25
77279;BME280;66332;50.436;15.378;2023-03-17T12:03:23;98461.25;;;11.05;33.86
77279;BME280;66332;50.436;15.378;2023-03-17T12:13:59;98455.28;;;11.64;33.74
77279;BME280;66332;50.436;15.378;2023-03-17T12:18:53;98434.00;;;11.80;32.47
77279;BME280;66332;50.436;15.378;2023-03-17T12:28:33;98423.28;;;11.52;34.13
77279;BME280;66332;50.436;15.378;2023-03-17T12:38:21;98426.22;;;11.72;32.47
77279;BME280;66332;50.436;15.378;2023-03-17T12:48:22;98440.16;;;12.32;31.97
77279;BME280;66332;50.436;15.378;2023-03-17T12:53:24;98415.03;;;11.70;32.33
77279;BME280;66332;50.436;15.378;2023-03-17T12:58:21;98411.69;;;12.06;33.67
77279;BME280;66332;50.436;15.378;2023-03-17T13:03:11;98406.63;;;12.26;31.78
77279;BME280;66332;50.436;15.378;2023-03-17T13:07:57;98411.28;;;12.81;32.49
77279;BME280;66332;50.436;15.378;2023-03-17T13:26:58;98398.81;;;12.97;29.04
77279;BME280;66332;50.436;15.378;2023-03-17T13:31:41;98398.00;;;12.75;31.81
77279;BME280;66332;50.436;15.378;2023-03-17T13:37:32;98385.13;;;12.86;31.88
77279;BME280;66332;50.436;15.378;2023-03-17T13:47:40;98377.31;;;13.91;31.49
77279;BME280;66332;50.436;15.378;2023-03-17T13:52:40;98368.16;;;13.52;30.68
77279;BME280;66332;50.436;15.378;2023-03-17T13:57:28;98360.16;;;13.80;29.76
77279;BME280;66332;50.436;15.378;2023-03-17T14:02:20;98332.16;;;13.44;31.16
77279;BME280;66332;50.436;15.378;2023-03-17T14:07:08;98350.00;;;13.84;29.56
77279;BME280;66332;50.436;15.378;2023-03-17T14:11:54;98343.34;;;13.88;31.50
77279;BME280;66332;50.436;15.378;2023-03-17T14:16:45;98315.22;;;13.32;29.44
77279;BME280;66332;50.436;15.378;2023-03-17T14:21:31;98335.13;;;13.06;30.05
77279;BME280;66332;50.436;15.378;2023-03-17T14:26:13;98352.34;;;13.02;31.27
77279;BME280;66332;50.436;15.378;2023-03-17T14:31:02;98331.53;;;13.14;30.96
77279;BME280;66332;50.436;15.378;2023-03-17T14:35:44;98319.34;;;13.13;29.41
77279;BME280;66332;50.436;15.378;2023-03-17T14:40:27;98333.34;;;13.42;29.37
77279;BME280;66332;50.436;15.378;2023-03-17T14:50:36;98318.38;;;13.97;29.04
77279;BME280;66332;50.436;15.378;2023-03-17T14:55:17;98305.16;;;14.10;28.98
77279;BME280;66332;50.436;15.378;2023-03-17T15:00:03;98304.91;;;13.92;28.81
77279;BME280;66332;50.436;15.378;2023-03-17T15:10:00;98282.47;;;14.56;26.79
77279;BME280;66332;50.436;15.378;2023-03-17T15:14:43;98269.50;;;13.80;27.44
77279;BME280;66332;50.436;15.378;2023-03-17T15:19:46;98274.16;;;13.71;29.50
77279;BME280;66332;50.436;15.378;2023-03-17T15:24:39;98265.97;;;13.18;29.46
77279;BME280;66332;50.436;15.378;2023-03-17T15:29:20;98273.66;;;13.13;30.66
77279;BME280;66332;50.436;15.378;2023-03-17T15:34:01;98264.84;;;12.71;32.62
77279;BME280;66332;50.436;15.378;2023-03-17T15:38:42;98262.44;;;12.26;31.76
77279;BME280;66332;50.436;15.378;2023-03-17T15:43:23;98262.00;;;12.23;32.68
77279;BME280;66332;50.436;15.378;2023-03-17T15:48:04;98292.13;;;12.13;33.33
77279;BME280;66332;50.436;15.378;2023-03-17T15:52:46;98265.59;;;11.93;33.16
77279;BME280;66332;50.436;15.378;2023-03-17T15:57:28;98274.69;;;11.76;34.32
77279;BME280;66332;50.436;15.378;2023-03-17T16:02:25;98279.25;;;11.67;34.10
77279;BME280;66332;50.436;15.378;2023-03-17T16:07:11;98271.16;;;11.33;35.54
77279;BME280;66332;50.436;15.378;2023-03-17T16:11:51;98269.59;;;11.09;34.60
77279;BME280;66332;50.436;15.378;2023-03-17T16:16:36;98284.09;;;11.05;35.29
77279;BME280;66332;50.436;15.378;2023-03-17T16:21:18;98271.19;;;10.80;36.38
77279;BME280;66332;50.436;15.378;2023-03-17T16:30:55;98279.97;;;10.34;37.62
77279;BME280;66332;50.436;15.378;2023-03-17T16:35:45;98287.41;;;10.08;39.86
77279;BME280;66332;50.436;15.378;2023-03-17T16:40:50;98286.25;;;9.79;39.53
77279;BME280;66332;50.436;15.378;2023-03-17T16:45:36;98286.81;;;9.67;40.50
77279;BME280;66332;50.436;15.378;2023-03-17T16:50:23;98284.66;;;9.31;41.03
77279;BME280;66332;50.436;15.378;2023-03-17T16:55:04;98291.44;;;9.17;40.46
77279;BME280;66332;50.436;15.378;2023-03-17T17:00:00;98282.63;;;9.02;42.01
77279;BME280;66332;50.436;15.378;2023-03-17T17:04:45;98288.56;;;8.95;41.96
77279;BME280;66332;50.436;15.378;2023-03-17T17:09:36;98284.03;;;8.65;42.73
77279;BME280;66332;50.436;15.378;2023-03-17T17:14:17;98294.16;;;8.68;42.49
77279;BME280;66332;50.436;15.378;2023-03-17T17:19:00;98291.91;;;8.40;43.04
77279;BME280;66332;50.436;15.378;2023-03-17T17:23:42;98282.50;;;8.21;44.06
77279;BME280;66332;50.436;15.378;2023-03-17T17:28:24;98295.63;;;8.13;43.71
77279;BME280;66332;50.436;15.378;2023-03-17T17:33:05;98304.75;;;8.01;43.93
77279;BME280;66332;50.436;15.378;2023-03-17T17:37:46;98297.19;;;7.73;44.99
77279;BME280;66332;50.436;15.378;2023-03-17T17:42:48;98306.16;;;7.79;45.02
77279;BME280;66332;50.436;15.378;2023-03-17T17:48:01;98304.00;;;7.58;45.77
77279;BME280;66332;50.436;15.378;2023-03-17T17:53:09;98307.19;;;7.44;46.18
77279;BME280;66332;50.436;15.378;2023-03-17T17:57:54;98294.94;;;7.44;45.97
77279;BME280;66332;50.436;15.378;2023-03-17T18:02:53;98301.94;;;7.35;45.78
77279;BME280;66332;50.436;15.378;2023-03-17T18:07:35;98299.81;;;7.31;46.27
77279;BME280;66332;50.436;15.378;2023-03-17T18:12:16;98291.00;;;7.06;46.39
77279;BME280;66332;50.436;15.378;2023-03-17T18:16:59;98316.69;;;7.10;46.46
77279;BME280;66332;50.436;15.378;2023-03-17T18:21:46;98279.44;;;6.82;46.57
77279;BME280;66332;50.436;15.378;2023-03-17T18:26:38;98277.63;;;6.57;47.07
77279;BME280;66332;50.436;15.378;2023-03-17T18:31:46;98260.59;;;6.27;47.85
77279;BME280;66332;50.436;15.378;2023-03-17T18:37:23;98297.53;;;6.14;50.00
77279;BME280;66332;50.436;15.378;2023-03-17T18:42:29;98280.69;;;5.81;51.14
77279;BME280;66332;50.436;15.378;2023-03-17T18:47:27;98285.75;;;5.64;51.88
77279;BME280;66332;50.436;15.378;2023-03-17T18:52:08;98299.50;;;5.57;52.81
77279;BME280;66332;50.436;15.378;2023-03-17T18:56:49;98303.69;;;5.49;51.13
77279;BME280;66332;50.436;15.378;2023-03-17T19:01:31;98302.06;;;5.48;51.09
77279;BME280;66332;50.436;15.378;2023-03-17T19:06:15;98309.66;;;5.60;50.80
77279;BME280;66332;50.436;15.378;2023-03-17T19:11:15;98310.06;;;5.37;53.17
77279;BME280;66332;50.436;15.378;2023-03-17T19:15:58;98305.88;;;5.17;55.02
77279;BME280;66332;50.436;15.378;2023-03-17T19:20:40;98302.50;;;5.06;55.58
77279;BME280;66332;50.436;15.378;2023-03-17T19:25:27;98302.13;;;4.92;55.21
77279;BME280;66332;50.436;15.378;2023-03-17T19:30:09;98315.31;;;4.90;54.20
77279;BME280;66332;50.436;15.378;2023-03-17T19:34:56;98312.00;;;4.88;54.56
77279;BME280;66332;50.436;15.378;2023-03-17T19:39:38;98307.91;;;4.86;54.62
77279;BME280;66332;50.436;15.378;2023-03-17T19:44:22;98298.34;;;4.67;55.08
77279;BME280;66332;50.436;15.378;2023-03-17T19:49:07;98286.72;;;4.61;54.79
77279;BME280;66332;50.436;15.378;2023-03-17T19:53:53;98261.66;;;4.41;54.60
77279;BME280;66332;50.436;15.378;2023-03-17T19:58:35;98313.25;;;4.74;53.87
77279;BME280;66332;50.436;15.378;2023-03-17T20:03:19;98309.81;;;4.83;52.14
77279;BME280;66332;50.436;15.378;2023-03-17T20:08:01;98286.94;;;4.87;51.53
77279;BME280;66332;50.436;15.378;2023-03-17T20:12:42;98289.91;;;4.92;50.72
77279;BME280;66332;50.436;15.378;2023-03-17T20:17:25;98317.19;;;4.98;50.93
77279;BME280;66332;50.436;15.378;2023-03-17T20:22:06;98277.88;;;4.91;50.09
77279;BME280;66332;50.436;15.378;2023-03-17T20:26:51;98302.34;;;5.08;50.07
77279;BME280;66332;50.436;15.378;2023-03-17T20:31:35;98300.41;;;5.10;49.42
77279;BME280;66332;50.436;15.378;2023-03-17T20:36:17;98289.59;;;5.05;49.42
77279;BME280;66332;50.436;15.378;2023-03-17T20:41:10;98273.06;;;4.96;49.73
77279;BME280;66332;50.436;15.378;2023-03-17T20:45:51;98275.09;;;4.93;49.04
77279;BME280;66332;50.436;15.378;2023-03-17T20:50:32;98294.19;;;4.93;49.61
77279;BME280;66332;50.436;15.378;2023-03-17T20:55:15;98263.78;;;4.84;49.75
77279;BME280;66332;50.436;15.378;2023-03-17T20:59:56;98284.63;;;4.84;50.23
77279;BME280;66332;50.436;15.378;2023-03-17T21:04:37;98273.38;;;4.74;49.59
77279;BME280;66332;50.436;15.378;2023-03-17T21:09:21;98282.13;;;4.82;49.46
77279;BME280;66332;50.436;15.378;2023-03-17T21:14:04;98274.63;;;4.70;50.36
77279;BME280;66332;50.436;15.378;2023-03-17T21:18:47;98274.09;;;4.56;49.96
77279;BME280;66332;50.436;15.378;2023-03-17T21:23:28;98288.34;;;4.72;49.80
77279;BME280;66332;50.436;15.378;2023-03-17T21:28:09;98287.69;;;4.50;50.38
77279;BME280;66332;50.436;15.378;2023-03-17T21:32:51;98277.13;;;4.52;50.26
77279;BME280;66332;50.436;15.378;2023-03-17T21:37:39;98277.69;;;4.55;49.81
77279;BME280;66332;50.436;15.378;2023-03-17T21:42:21;98273.75;;;4.42;49.80
77279;BME280;66332;50.436;15.378;2023-03-17T21:47:01;98278.09;;;4.51;49.91
77279;BME280;66332;50.436;15.378;2023-03-17T21:51:44;98290.44;;;4.49;49.58
77279;BME280;66332;50.436;15.378;2023-03-17T21:56:26;98274.84;;;4.39;49.16
77279;BME280;66332;50.436;15.378;2023-03-17T22:01:08;98271.69;;;4.35;49.82
77279;BME280;66332;50.436;15.378;2023-03-17T22:05:49;98280.03;;;4.39;49.92
77279;BME280;66332;50.436;15.378;2023-03-17T22:10:34;98279.47;;;4.45;49.50
77279;BME280;66332;50.436;15.378;2023-03-17T22:15:15;98290.06;;;4.24;50.32
77279;BME280;66332;50.436;15.378;2023-03-17T22:19:57;98291.13;;;4.22;50.90
77279;BME280;66332;50.436;15.378;2023-03-17T22:24:38;98273.47;;;4.16;50.00
77279;BME280;66332;50.436;15.378;2023-03-17T22:29:19;98273.19;;;4.19;50.90
77279;BME280;66332;50.436;15.378;2023-03-17T22:34:00;98268.81;;;4.09;50.95
77279;BME280;66332;50.436;15.378;2023-03-17T22:38:41;98278.13;;;4.12;50.92
77279;BME280;66332;50.436;15.378;2023-03-17T22:43:22;98268.28;;;4.16;50.87
77279;BME280;66332;50.436;15.378;2023-03-17T22:48:03;98255.94;;;3.98;50.79
77279;BME280;66332;50.436;15.378;2023-03-17T22:52:45;98275.81;;;4.19;50.51
